Time;durP1;ratioP1;P1;durP2;ratioP2;P2;SDS_P1;SDS_P2;PMS_P1;PMS_P2;Temp;Humidity;BMP_temperature;BMP_pressure;BME280_temperature;BME280_humidity;BME280_pressure;Samples;Min_cycle;Max_cycle;Signal;HPM_P1;HPM_P2
2022/11/30 00:01:16;;;;;;;20.20;14.20;;;7.30;99.90;;;;;;5023425;28;20178;-89
2022/11/30 00:03:52;;;;;;;20.13;14.70;;;7.00;99.90;;;;;;5008105;28;20178;-90
2022/11/30 00:06:25;;;;;;;19.77;13.93;;;7.00;99.90;;;;;;5013134;28;20197;-85
2022/11/30 00:08:57;;;;;;;20.07;14.80;;;7.00;99.90;;;;;;5013244;28;20170;-82
2022/11/30 00:11:25;;;;;;;21.30;14.57;;;6.90;99.90;;;;;;5022856;28;20158;-81
2022/11/30 00:13:53;;;;;;;21.93;15.97;;;7.10;99.90;;;;;;5023524;28;20166;-88
2022/11/30 00:16:22;;;;;;;21.70;14.57;;;7.20;99.90;;;;;;5024520;28;20170;-89
2022/11/30 00:18:48;;;;;;;19.50;14.13;;;7.30;99.90;;;;;;5023883;28;20155;-87
2022/11/30 00:21:14;;;;;;;22.17;14.90;;;7.20;99.90;;;;;;5022221;28;20181;-87
2022/11/30 00:23:42;;;;;;;20.07;14.40;;;7.30;99.90;;;;;;5030639;28;20181;-87
2022/11/30 00:26:10;;;;;;;22.73;15.33;;;7.30;99.90;;;;;;5035442;28;20270;-88
2022/11/30 00:28:38;;;;;;;23.67;15.03;;;7.20;99.90;;;;;;5031868;28;20179;-87
2022/11/30 00:31:06;;;;;;;20.03;14.50;;;7.10;99.90;;;;;;5002512;28;20647;-79
2022/11/30 00:33:38;;;;;;;21.27;14.97;;;7.00;99.90;;;;;;5020808;28;20231;-82
2022/11/30 00:36:09;;;;;;;21.40;14.20;;;7.00;99.90;;;;;;5002488;28;20163;-82
2022/11/30 00:38:35;;;;;;;21.00;14.53;;;7.20;99.90;;;;;;5000957;28;20201;-81
2022/11/30 00:41:01;;;;;;;21.00;15.00;;;7.20;99.90;;;;;;5017364;28;20529;-81
2022/11/30 00:43:30;;;;;;;19.97;13.93;;;7.40;99.90;;;;;;5022788;28;20221;-82
2022/11/30 00:45:56;;;;;;;21.13;15.13;;;7.20;99.90;;;;;;4988996;28;20218;-81
2022/11/30 00:48:24;;;;;;;22.73;14.70;;;7.20;99.90;;;;;;5019951;28;20174;-80
2022/11/30 00:50:50;;;;;;;19.97;14.27;;;7.40;99.90;;;;;;5021364;28;20635;-82
2022/11/30 00:53:16;;;;;;;23.20;15.03;;;7.30;99.90;;;;;;5020707;28;20194;-81
2022/11/30 00:55:43;;;;;;;21.20;14.57;;;7.50;99.90;;;;;;5000360;28;20169;-81
2022/11/30 00:58:10;;;;;;;22.20;14.77;;;7.60;99.90;;;;;;5000202;28;20272;-87
2022/11/30 01:00:38;;;;;;;21.90;15.67;;;7.40;99.90;;;;;;4999215;28;20197;-84
2022/11/30 01:03:04;;;;;;;22.20;15.27;;;7.20;99.90;;;;;;5016443;28;20190;-87
2022/11/30 01:05:32;;;;;;;22.07;15.47;;;7.40;99.90;;;;;;4998099;28;20210;-84
2022/11/30 01:08:07;;;;;;;21.20;15.23;;;7.30;99.90;;;;;;5017470;28;20178;-79
2022/11/30 01:10:36;;;;;;;21.63;14.90;;;7.20;99.90;;;;;;5016617;28;20253;-85
2022/11/30 01:13:03;;;;;;;20.97;15.57;;;7.30;99.90;;;;;;5015513;28;20182;-79
2022/11/30 01:15:29;;;;;;;21.30;14.97;;;7.40;99.90;;;;;;5015901;28;20166;-79
2022/11/30 01:17:57;;;;;;;23.57;16.93;;;7.40;99.90;;;;;;5014942;28;20170;-80
2022/11/30 01:20:23;;;;;;;24.10;16.20;;;7.50;99.90;;;;;;4999822;28;20170;-81
2022/11/30 01:22:51;;;;;;;24.77;16.63;;;7.40;99.90;;;;;;5006360;28;20213;-80
2022/11/30 01:25:17;;;;;;;22.67;15.77;;;7.40;99.90;;;;;;4998247;28;20197;-80
2022/11/30 01:27:42;;;;;;;26.17;16.73;;;7.30;99.90;;;;;;4997691;28;20181;-81
2022/11/30 01:30:09;;;;;;;24.07;17.40;;;7.30;99.90;;;;;;4997824;28;20170;-81
2022/11/30 01:32:35;;;;;;;27.47;17.90;;;7.50;99.90;;;;;;4999319;28;20181;-80
2022/11/30 01:35:01;;;;;;;27.60;18.63;;;7.40;99.90;;;;;;5017054;28;20174;-88
2022/11/30 01:37:29;;;;;;;20.47;14.60;;;7.60;99.90;;;;;;4979523;28;1121057;-88
2022/11/30 01:39:54;;;;;;;22.33;14.43;;;7.60;99.90;;;;;;5019151;28;20198;-89
2022/11/30 01:42:20;;;;;;;23.73;13.87;;;7.60;99.90;;;;;;5018517;28;20162;-87
2022/11/30 01:44:57;;;;;;;23.73;15.30;;;7.50;99.90;;;;;;5022793;28;20672;-87
2022/11/30 01:47:44;;;;;;;23.97;15.93;;;7.60;99.90;;;;;;5024721;28;20200;-87
2022/11/30 01:50:20;;;;;;;25.53;16.53;;;7.70;99.90;;;;;;5000953;28;20174;-87
2022/11/30 01:52:50;;;;;;;29.03;17.53;;;7.80;99.90;;;;;;5015575;28;20186;-87
2022/11/30 01:55:39;;;;;;;25.67;16.80;;;7.60;99.90;;;;;;5015512;28;20163;-87
2022/11/30 01:58:08;;;;;;;25.47;16.53;;;7.40;99.90;;;;;;4998565;28;20179;-90
2022/11/30 02:00:34;;;;;;;26.97;18.33;;;7.40;99.90;;;;;;5019419;28;20163;-88
2022/11/30 02:03:23;;;;;;;32.90;19.27;;;7.50;99.90;;;;;;5020885;28;20163;-87
2022/11/30 02:05:49;;;;;;;34.70;19.47;;;7.50;99.90;;;;;;5020642;28;20197;-83
2022/11/30 02:08:16;;;;;;;32.20;20.63;;;7.60;99.90;;;;;;5021967;28;20197;-84
2022/11/30 02:10:50;;;;;;;31.10;18.97;;;7.80;99.90;;;;;;5038244;28;20158;-85
2022/11/30 02:13:25;;;;;;;31.17;18.87;;;7.60;99.90;;;;;;5020011;28;20186;-89
2022/11/30 02:16:36;;;;;;;29.37;17.53;;;7.60;99.90;;;;;;5038336;28;20164;-86
2022/11/30 02:19:26;;;;;;;29.53;17.23;;;7.40;99.90;;;;;;4997030;28;20250;-85
2022/11/30 02:22:13;;;;;;;27.33;17.43;;;7.30;99.90;;;;;;5042643;28;20154;-84
2022/11/30 02:24:43;;;;;;;26.77;18.17;;;7.20;99.90;;;;;;5041778;28;20210;-80
2022/11/30 02:27:52;;;;;;;33.60;19.23;;;7.40;99.90;;;;;;5019364;28;20217;-83
2022/11/30 02:30:34;;;;;;;31.87;20.30;;;7.30;99.90;;;;;;4906218;29;20302;-84
2022/11/30 02:33:09;;;;;;;31.07;19.97;;;7.50;99.90;;;;;;5015442;28;20190;-84
2022/11/30 02:35:39;;;;;;;30.57;18.93;;;7.40;99.90;;;;;;5001579;28;20197;-86
2022/11/30 02:38:05;;;;;;;35.37;21.10;;;7.40;99.90;;;;;;5018738;28;20193;-88
2022/11/30 02:40:31;;;;;;;34.43;20.57;;;7.70;99.90;;;;;;5019151;28;20182;-87
2022/11/30 02:43:01;;;;;;;37.90;21.90;;;7.60;99.90;;;;;;5022336;28;20174;-86
2022/11/30 02:45:43;;;;;;;34.37;20.30;;;7.70;99.90;;;;;;5019945;28;20210;-83
2022/11/30 02:48:11;;;;;;;33.40;20.60;;;7.70;99.90;;;;;;5001976;28;20269;-89
2022/11/30 02:50:56;;;;;;;33.33;19.67;;;7.60;99.90;;;;;;5033920;28;20189;-85
2022/11/30 02:53:22;;;;;;;35.80;20.53;;;7.50;99.90;;;;;;5017120;28;20202;-87
2022/11/30 02:55:48;;;;;;;38.43;21.73;;;7.60;99.90;;;;;;5014170;28;20186;-87
2022/11/30 02:58:16;;;;;;;37.50;21.37;;;7.70;99.90;;;;;;5020007;28;20194;-89
2022/11/30 03:00:44;;;;;;;34.37;20.13;;;7.60;99.90;;;;;;5037391;28;20177;-82
2022/11/30 03:03:10;;;;;;;35.63;20.17;;;7.70;99.90;;;;;;5031630;28;20170;-79
2022/11/30 03:05:36;;;;;;;44.53;22.43;;;7.60;99.90;;;;;;5010084;28;20198;-81
2022/11/30 03:08:02;;;;;;;36.47;20.97;;;7.80;99.90;;;;;;5020324;28;20719;-86
2022/11/30 03:10:27;;;;;;;40.43;22.87;;;7.80;99.90;;;;;;5001429;28;20178;-87
2022/11/30 03:12:57;;;;;;;44.07;23.80;;;7.70;99.90;;;;;;5001564;28;20185;-88
2022/11/30 03:15:29;;;;;;;92.07;22.10;;;7.70;99.90;;;;;;5021833;28;20222;-86
2022/11/30 03:17:54;;;;;;;42.63;23.53;;;7.90;99.90;;;;;;5031345;28;20182;-78
2022/11/30 03:20:21;;;;;;;43.50;23.17;;;7.90;99.90;;;;;;5026285;28;20181;-86
2022/11/30 03:22:47;;;;;;;43.97;22.03;;;8.00;99.90;;;;;;5020262;28;20197;-84
2022/11/30 03:25:12;;;;;;;56.17;25.10;;;7.60;99.90;;;;;;4999936;28;20631;-87
2022/11/30 03:27:38;;;;;;;45.50;22.33;;;7.70;99.90;;;;;;5017903;28;20182;-80
2022/11/30 03:30:05;;;;;;;54.10;22.23;;;7.60;99.90;;;;;;5018231;28;20174;-80
2022/11/30 03:32:31;;;;;;;50.23;22.63;;;7.70;99.90;;;;;;5019878;28;20239;-85
2022/11/30 03:34:56;;;;;;;39.87;21.90;;;7.80;99.90;;;;;;5019881;28;20689;-85
2022/11/30 03:37:22;;;;;;;42.57;22.63;;;8.00;99.90;;;;;;5018937;28;20261;-87
2022/11/30 03:39:48;;;;;;;43.00;22.47;;;8.00;99.90;;;;;;4998993;28;20190;-88
2022/11/30 03:42:14;;;;;;;52.27;23.93;;;8.00;99.90;;;;;;4998792;28;20630;-80
2022/11/30 03:44:40;;;;;;;51.17;24.17;;;7.90;99.90;;;;;;5016298;28;20171;-84
2022/11/30 03:47:06;;;;;;;55.00;23.37;;;8.00;99.90;;;;;;5016110;28;20202;-80
2022/11/30 03:49:33;;;;;;;65.23;23.73;;;7.90;99.90;;;;;;5019224;28;20258;-80
2022/11/30 03:51:59;;;;;;;58.97;25.50;;;7.90;99.90;;;;;;5014864;28;20178;-80
2022/11/30 03:54:24;;;;;;;92.93;25.60;;;8.00;99.90;;;;;;5015171;28;20268;-82
2022/11/30 03:56:50;;;;;;;74.50;25.93;;;8.00;99.90;;;;;;5015755;28;20198;-80
2022/11/30 03:59:16;;;;;;;82.30;24.97;;;7.90;99.90;;;;;;5015254;28;20716;-81
2022/11/30 04:01:41;;;;;;;75.33;25.50;;;7.90;99.90;;;;;;5014478;28;20178;-80
2022/11/30 04:04:07;;;;;;;87.33;25.83;;;7.80;99.90;;;;;;5015416;28;20682;-88
2022/11/30 04:06:33;;;;;;;116.13;28.23;;;7.80;99.90;;;;;;4997395;28;20591;-87
2022/11/30 04:08:59;;;;;;;75.10;27.87;;;7.70;99.90;;;;;;5015190;28;20257;-81
2022/11/30 04:11:24;;;;;;;100.20;28.23;;;7.70;99.90;;;;;;4997343;28;20662;-79
2022/11/30 04:13:51;;;;;;;80.63;27.57;;;7.70;99.90;;;;;;5015996;28;20596;-79
2022/11/30 04:16:20;;;;;;;73.67;27.73;;;7.70;99.90;;;;;;5000219;28;20273;-80
2022/11/30 04:18:59;;;;;;;106.43;28.53;;;7.70;99.90;;;;;;5015744;28;20182;-79
2022/11/30 04:21:30;;;;;;;72.67;27.07;;;7.70;99.90;;;;;;5015761;28;20166;-80
2022/11/30 04:23:56;;;;;;;62.43;24.23;;;7.70;99.90;;;;;;5016516;28;20293;-88
2022/11/30 04:26:22;;;;;;;66.17;27.00;;;7.60;99.90;;;;;;5017085;28;20225;-89
2022/11/30 04:28:47;;;;;;;56.73;24.87;;;7.40;99.90;;;;;;4999589;28;20540;-89
2022/11/30 04:31:13;;;;;;;65.20;26.43;;;7.10;99.90;;;;;;5017464;28;20198;-89
2022/11/30 04:33:39;;;;;;;123.73;29.27;;;7.30;99.90;;;;;;5016723;28;20901;-87
2022/11/30 04:36:06;;;;;;;105.60;28.07;;;7.20;99.90;;;;;;5016804;28;20170;-87
2022/11/30 04:38:32;;;;;;;75.67;26.13;;;7.40;99.90;;;;;;5016482;28;20178;-89
2022/11/30 04:40:58;;;;;;;105.90;27.87;;;7.40;99.90;;;;;;4997099;28;20657;-87
2022/11/30 04:43:24;;;;;;;82.73;25.60;;;7.40;99.90;;;;;;4999634;28;20178;-85
2022/11/30 04:45:50;;;;;;;63.77;24.70;;;7.40;99.90;;;;;;5012730;28;20210;-84
2022/11/30 04:48:17;;;;;;;52.63;22.80;;;7.40;99.90;;;;;;5037797;28;20217;-87
2022/11/30 04:50:43;;;;;;;69.63;24.93;;;7.30;99.90;;;;;;5035612;28;20186;-87
2022/11/30 04:53:10;;;;;;;130.50;25.83;;;7.20;99.90;;;;;;5017951;28;20208;-89
2022/11/30 04:55:36;;;;;;;119.20;26.83;;;7.20;99.90;;;;;;5018555;28;20226;-80
2022/11/30 04:58:03;;;;;;;184.90;28.73;;;7.30;99.90;;;;;;5038793;28;20189;-82
2022/11/30 05:00:29;;;;;;;62.57;25.10;;;7.30;99.90;;;;;;5039108;28;20178;-87
2022/11/30 05:02:57;;;;;;;59.73;24.10;;;7.30;99.90;;;;;;5039360;28;20186;-82
2022/11/30 05:05:23;;;;;;;60.70;24.30;;;7.40;99.90;;;;;;5038580;28;20181;-86
2022/11/30 05:07:54;;;;;;;156.70;27.57;;;7.40;99.90;;;;;;4998597;28;20258;-86
2022/11/30 05:10:27;;;;;;;170.67;26.00;;;7.50;99.90;;;;;;5007711;28;20177;-84
2022/11/30 05:12:53;;;;;;;106.20;23.87;;;7.30;99.90;;;;;;5024569;28;20181;-84
2022/11/30 05:15:22;;;;;;;121.43;26.33;;;7.40;99.90;;;;;;5004519;28;20693;-87
2022/11/30 05:17:47;;;;;;;105.03;22.50;;;7.50;99.90;;;;;;5000719;28;20213;-87
2022/11/30 05:20:13;;;;;;;50.80;19.63;;;7.40;99.90;;;;;;5018215;28;20159;-89
2022/11/30 05:22:53;;;;;;;44.13;17.37;;;7.10;99.90;;;;;;5020164;28;20213;-88
2022/11/30 05:25:19;;;;;;;51.33;19.63;;;6.90;99.90;;;;;;5001884;28;20213;-88
2022/11/30 05:27:45;;;;;;;78.83;21.07;;;6.60;99.90;;;;;;5005451;28;20178;-87
2022/11/30 05:30:13;;;;;;;51.90;20.77;;;6.80;99.90;;;;;;5005024;28;20189;-88
2022/11/30 05:32:39;;;;;;;44.53;20.50;;;7.00;99.90;;;;;;5022174;28;20194;-89
2022/11/30 05:35:05;;;;;;;53.57;21.03;;;7.10;99.90;;;;;;4985260;28;20183;-88
2022/11/30 05:37:32;;;;;;;36.97;19.37;;;6.90;99.90;;;;;;5023588;28;20175;-86
2022/11/30 05:39:58;;;;;;;40.03;20.17;;;7.00;99.90;;;;;;5023200;28;20190;-86
2022/11/30 05:42:24;;;;;;;45.67;19.80;;;7.10;99.90;;;;;;5027356;28;20183;-88
2022/11/30 05:44:59;;;;;;;43.50;20.87;;;7.20;99.90;;;;;;5017257;28;20264;-82
2022/11/30 05:47:24;;;;;;;49.83;22.00;;;7.30;99.90;;;;;;5016659;28;20289;-87
2022/11/30 05:49:50;;;;;;;57.00;22.57;;;7.30;99.90;;;;;;5016908;28;20227;-86
2022/11/30 05:52:16;;;;;;;42.90;22.10;;;7.50;99.90;;;;;;5024563;28;20205;-88
2022/11/30 05:54:41;;;;;;;58.73;22.47;;;7.50;99.90;;;;;;5021551;28;20266;-88
2022/11/30 05:57:07;;;;;;;60.53;22.70;;;7.40;99.90;;;;;;5016534;28;20174;-88
2022/11/30 05:59:33;;;;;;;52.47;21.77;;;7.40;99.90;;;;;;5016454;28;20189;-86
2022/11/30 06:01:58;;;;;;;51.17;22.93;;;7.40;99.90;;;;;;5000004;28;20241;-88
2022/11/30 06:04:24;;;;;;;42.13;22.07;;;7.50;99.90;;;;;;5017813;28;20658;-87
2022/11/30 06:06:54;;;;;;;53.07;22.90;;;7.70;99.90;;;;;;5014628;28;20229;-86
2022/11/30 06:09:20;;;;;;;49.83;22.00;;;7.70;99.90;;;;;;5036290;28;20154;-84
2022/11/30 06:11:45;;;;;;;77.47;22.73;;;7.70;99.90;;;;;;5024245;28;20183;-88
2022/11/30 06:14:13;;;;;;;60.10;23.97;;;7.70;99.90;;;;;;5020618;28;20709;-89
2022/11/30 06:16:38;;;;;;;56.70;22.57;;;7.70;99.90;;;;;;5019305;28;20181;-88
2022/11/30 06:19:04;;;;;;;50.63;23.63;;;7.70;99.90;;;;;;5002113;28;20174;-90
2022/11/30 06:21:30;;;;;;;50.43;24.10;;;7.70;99.90;;;;;;4998453;28;20183;-89
2022/11/30 06:23:56;;;;;;;54.20;23.53;;;7.70;99.90;;;;;;4998198;28;20163;-89
2022/11/30 06:26:22;;;;;;;45.97;22.53;;;7.60;99.90;;;;;;4997492;28;20744;-88
2022/11/30 06:28:48;;;;;;;48.43;22.33;;;7.60;99.90;;;;;;5015449;28;20174;-89
2022/11/30 06:31:15;;;;;;;47.73;22.30;;;7.50;99.90;;;;;;5016292;28;20551;-88
2022/11/30 06:33:41;;;;;;;51.53;25.60;;;7.50;99.90;;;;;;5016720;28;20240;-89
2022/11/30 06:36:07;;;;;;;47.17;22.80;;;7.50;99.90;;;;;;5022710;28;20742;-89
2022/11/30 06:38:35;;;;;;;44.33;23.47;;;7.60;99.90;;;;;;5022221;28;20181;-88
2022/11/30 06:41:06;;;;;;;49.53;25.00;;;7.60;99.90;;;;;;5025853;28;20174;-87
2022/11/30 06:43:36;;;;;;;49.97;24.30;;;7.60;99.90;;;;;;5032847;28;20170;-88
2022/11/30 06:46:03;;;;;;;52.77;25.17;;;7.70;99.90;;;;;;5015217;28;20237;-88
2022/11/30 06:48:34;;;;;;;46.23;22.87;;;7.80;99.90;;;;;;5033433;28;20214;-88
2022/11/30 06:51:00;;;;;;;50.03;25.63;;;7.80;99.90;;;;;;5013681;28;20171;-85
2022/11/30 06:53:26;;;;;;;51.37;23.67;;;7.80;99.90;;;;;;5017103;28;20298;-88
2022/11/30 06:55:52;;;;;;;46.37;24.77;;;7.90;99.90;;;;;;5019833;28;20175;-86
2022/11/30 06:58:18;;;;;;;54.20;24.50;;;7.70;99.90;;;;;;5007975;28;20221;-89
2022/11/30 07:00:43;;;;;;;58.87;25.73;;;7.70;99.90;;;;;;5027944;28;20171;-86
2022/11/30 07:03:10;;;;;;;56.50;25.43;;;7.60;99.90;;;;;;5021550;28;20193;-84
2022/11/30 07:05:44;;;;;;;54.67;27.20;;;7.70;99.90;;;;;;5002949;28;20202;-82
2022/11/30 07:08:13;;;;;;;56.20;25.60;;;7.70;99.90;;;;;;5000452;28;20183;-86
2022/11/30 07:10:44;;;;;;;60.73;27.07;;;7.60;99.90;;;;;;5018483;28;20201;-83
2022/11/30 07:13:11;;;;;;;53.37;26.17;;;7.60;99.90;;;;;;5020960;28;20664;-84
2022/11/30 07:15:39;;;;;;;57.97;26.37;;;7.60;99.90;;;;;;5014395;28;20193;-86
2022/11/30 07:18:06;;;;;;;58.27;28.63;;;7.50;99.90;;;;;;5034157;28;20197;-82
2022/11/30 07:20:35;;;;;;;58.27;27.77;;;7.30;99.90;;;;;;5036039;28;20155;-88
2022/11/30 07:26:05;;;;;;;49.10;23.70;;;6.90;99.90;;;;;;4998368;28;20182;-86
2022/11/30 07:26:06;;;;;;;49.63;24.23;;;6.80;99.90;;;;;;5035983;28;20200;-85
2022/11/30 07:28:46;;;;;;;52.57;25.27;;;7.00;99.90;;;;;;5024314;28;20182;-88
2022/11/30 07:31:33;;;;;;;45.97;23.40;;;7.00;99.90;;;;;;5011699;28;20233;-86
2022/11/30 07:34:04;;;;;;;57.10;25.37;;;6.90;99.90;;;;;;5018638;28;20177;-88
2022/11/30 07:36:30;;;;;;;49.40;24.37;;;6.90;99.90;;;;;;5019929;28;20178;-85
2022/11/30 07:38:56;;;;;;;54.40;26.73;;;6.80;99.90;;;;;;5020120;28;20211;-86
2022/11/30 07:41:26;;;;;;;51.73;25.43;;;6.90;99.90;;;;;;5016164;28;20186;-86
2022/11/30 07:47:17;;;;;;;45.37;23.77;;;6.80;99.90;;;;;;5019124;28;20221;-88
2022/11/30 07:49:42;;;;;;;48.97;25.40;;;6.70;99.90;;;;;;5003607;28;20178;-89
2022/11/30 07:52:08;;;;;;;47.47;26.53;;;6.80;99.90;;;;;;5002718;28;20171;-88
2022/11/30 07:54:35;;;;;;;48.03;24.40;;;6.90;99.90;;;;;;5002012;28;20202;-87
2022/11/30 07:57:01;;;;;;;51.50;26.43;;;7.00;99.90;;;;;;5001342;28;20182;-88
2022/11/30 07:59:26;;;;;;;46.77;23.40;;;6.90;99.90;;;;;;5010600;28;20208;-87
2022/11/30 08:01:52;;;;;;;53.80;25.37;;;6.90;99.90;;;;;;5023717;28;20182;-84
2022/11/30 08:04:18;;;;;;;43.30;24.13;;;6.90;99.90;;;;;;5030417;28;20186;-86
2022/11/30 08:06:47;;;;;;;47.43;24.43;;;6.90;99.90;;;;;;5013831;28;20210;-83
2022/11/30 08:09:14;;;;;;;44.20;24.20;;;7.20;99.90;;;;;;4996730;28;20712;-86
2022/11/30 08:11:42;;;;;;;51.43;25.33;;;6.90;99.90;;;;;;5015499;28;20183;-88
2022/11/30 08:14:11;;;;;;;44.80;23.93;;;6.80;99.90;;;;;;5010720;28;20209;-88
2022/11/30 08:16:37;;;;;;;46.53;25.40;;;6.80;99.90;;;;;;5004565;28;20262;-87
2022/11/30 08:19:03;;;;;;;56.37;25.37;;;6.60;99.90;;;;;;5021377;28;20274;-88
2022/11/30 08:21:31;;;;;;;46.27;24.60;;;6.80;99.90;;;;;;4998665;28;20290;-86
2022/11/30 08:23:57;;;;;;;48.80;25.03;;;6.70;99.90;;;;;;4987001;28;20198;-87
2022/11/30 08:26:28;;;;;;;46.63;23.77;;;6.80;99.90;;;;;;5003543;28;20214;-87
2022/11/30 08:28:55;;;;;;;44.37;24.30;;;6.70;99.90;;;;;;4999769;28;20166;-86
2022/11/30 08:31:26;;;;;;;51.17;25.33;;;6.60;99.90;;;;;;5015670;28;20183;-88
2022/11/30 08:33:57;;;;;;;49.73;23.53;;;6.70;99.90;;;;;;5017377;28;20172;-87
2022/11/30 08:36:26;;;;;;;48.67;24.63;;;6.80;99.90;;;;;;5029566;28;20194;-85
2022/11/30 08:38:55;;;;;;;43.77;22.37;;;7.00;99.90;;;;;;5026277;28;20295;-84
2022/11/30 08:41:22;;;;;;;42.80;23.03;;;6.80;99.90;;;;;;5036554;28;20162;-85
2022/11/30 08:43:51;;;;;;;46.40;24.53;;;6.60;99.90;;;;;;5036426;28;20206;-86
2022/11/30 08:46:39;;;;;;;42.10;23.63;;;6.70;99.90;;;;;;5012262;28;20679;-88
2022/11/30 08:49:04;;;;;;;44.20;23.17;;;6.90;99.90;;;;;;4996437;28;20179;-84
2022/11/30 08:51:31;;;;;;;40.53;21.70;;;6.90;99.90;;;;;;5008038;28;20532;-84
2022/11/30 08:53:57;;;;;;;46.37;23.10;;;7.00;99.90;;;;;;5014297;28;20229;-83
2022/11/30 08:56:22;;;;;;;43.00;22.43;;;7.10;99.90;;;;;;5014976;28;20175;-83
2022/11/30 08:58:48;;;;;;;40.83;23.07;;;7.10;99.90;;;;;;5017632;28;20240;-82
2022/11/30 09:01:23;;;;;;;38.83;21.97;;;7.10;99.90;;;;;;5002057;28;20188;-83
2022/11/30 09:03:58;;;;;;;40.93;21.07;;;7.30;99.90;;;;;;5035956;28;20311;-83
2022/11/30 09:06:29;;;;;;;36.30;20.83;;;7.30;99.90;;;;;;5014590;28;20291;-84
2022/11/30 09:08:57;;;;;;;39.10;20.93;;;7.40;99.90;;;;;;5012429;28;20270;-86
2022/11/30 09:11:26;;;;;;;34.17;20.63;;;7.20;99.90;;;;;;5013324;28;20639;-83
2022/11/30 09:13:54;;;;;;;37.90;22.60;;;6.80;99.90;;;;;;5014651;28;20205;-83
2022/11/30 09:16:20;;;;;;;37.10;20.87;;;7.10;99.90;;;;;;5008808;28;20186;-84
2022/11/30 09:18:47;;;;;;;36.80;22.77;;;7.30;99.90;;;;;;4994596;28;20182;-83
2022/11/30 09:21:15;;;;;;;33.87;21.63;;;7.30;99.90;;;;;;4995931;28;20206;-83
2022/11/30 09:23:43;;;;;;;34.67;20.37;;;7.40;99.90;;;;;;4995231;28;20599;-83
2022/11/30 09:26:10;;;;;;;37.87;21.93;;;7.20;99.90;;;;;;4993175;28;20304;-83
2022/11/30 09:28:37;;;;;;;34.10;19.80;;;7.20;99.90;;;;;;5011087;28;20182;-84
2022/11/30 09:31:07;;;;;;;35.00;20.50;;;7.20;99.90;;;;;;4994116;28;20182;-82
2022/11/30 09:33:33;;;;;;;40.40;21.63;;;7.20;99.90;;;;;;4995147;28;20569;-84
2022/11/30 09:36:05;;;;;;;37.97;21.77;;;7.30;99.90;;;;;;4994783;28;20186;-83
2022/11/30 09:38:31;;;;;;;37.77;21.37;;;7.50;99.90;;;;;;4994439;28;20733;-83
2022/11/30 09:40:59;;;;;;;35.67;19.50;;;7.50;99.90;;;;;;4994875;28;20269;-84
2022/11/30 09:43:47;;;;;;;33.53;20.50;;;7.40;99.90;;;;;;4993494;28;20682;-84
2022/11/30 09:46:13;;;;;;;33.07;20.33;;;7.40;99.90;;;;;;4975834;28;20305;-84
2022/11/30 09:48:58;;;;;;;33.20;20.60;;;7.30;99.90;;;;;;4992565;28;20217;-84
2022/11/30 09:51:51;;;;;;;32.50;19.73;;;7.60;99.90;;;;;;4994290;28;20688;-85
2022/11/30 09:54:34;;;;;;;31.27;18.83;;;7.80;99.90;;;;;;4994890;28;20210;-85
2022/11/30 09:57:20;;;;;;;30.83;20.40;;;7.80;99.90;;;;;;4999186;28;20585;-81
2022/11/30 09:59:54;;;;;;;30.60;19.77;;;7.80;99.90;;;;;;5004409;28;20181;-84
2022/11/30 10:02:22;;;;;;;29.53;19.43;;;8.00;99.90;;;;;;5000710;28;20184;-83
2022/11/30 10:04:50;;;;;;;33.87;18.80;;;8.30;99.90;;;;;;5009096;28;20241;-86
2022/11/30 10:07:51;;;;;;;29.57;19.13;;;7.90;99.90;;;;;;4993865;28;20296;-83
2022/11/30 10:10:31;;;;;;;30.27;19.50;;;7.70;99.90;;;;;;5019246;28;20201;-85
2022/11/30 10:13:14;;;;;;;32.37;19.67;;;7.70;99.90;;;;;;5035172;28;20209;-87
2022/11/30 10:16:11;;;;;;;26.70;18.07;;;7.80;99.90;;;;;;5015597;28;20190;-88
2022/11/30 10:18:55;;;;;;;28.13;19.03;;;7.80;99.90;;;;;;5023408;28;20175;-85
2022/11/30 10:22:01;;;;;;;29.90;19.70;;;7.70;99.90;;;;;;4997980;28;20166;-87
2022/11/30 10:25:00;;;;;;;28.50;18.10;;;7.70;99.90;;;;;;5003789;28;20201;-89
2022/11/30 10:27:43;;;;;;;27.10;17.80;;;7.70;99.90;;;;;;4994906;28;20210;-86
2022/11/30 10:30:15;;;;;;;32.10;19.43;;;7.60;99.90;;;;;;4995559;28;20163;-88
2022/11/30 10:32:44;;;;;;;31.70;20.43;;;7.70;99.90;;;;;;4995915;28;20186;-88
2022/11/30 10:35:20;;;;;;;29.70;20.33;;;7.70;99.90;;;;;;4998513;28;20208;-88
2022/11/30 10:37:46;;;;;;;33.53;21.50;;;7.90;99.90;;;;;;5016319;28;20174;-88
2022/11/30 10:40:16;;;;;;;32.73;21.07;;;8.00;99.90;;;;;;5002799;28;20183;-86
2022/11/30 10:42:44;;;;;;;31.93;20.20;;;8.20;99.90;;;;;;5028002;28;20257;-87
2022/11/30 10:45:17;;;;;;;32.00;21.93;;;8.10;99.90;;;;;;5014210;28;20185;-86
2022/11/30 10:47:49;;;;;;;33.37;20.90;;;8.20;99.90;;;;;;5028476;28;20183;-86
2022/11/30 10:50:16;;;;;;;34.60;21.50;;;8.30;99.90;;;;;;5031121;28;20179;-86
2022/11/30 10:52:52;;;;;;;29.57;20.33;;;8.30;99.90;;;;;;5016116;28;20273;-82
2022/11/30 10:55:22;;;;;;;30.10;19.97;;;8.40;99.90;;;;;;5026802;28;20255;-87
2022/11/30 10:57:54;;;;;;;33.87;21.20;;;8.40;99.90;;;;;;5023427;28;20206;-85
2022/11/30 11:00:24;;;;;;;31.30;20.03;;;8.50;99.90;;;;;;5000777;28;20159;-85
2022/11/30 11:02:50;;;;;;;30.33;19.73;;;8.30;99.90;;;;;;5019740;28;20195;-84
2022/11/30 11:05:20;;;;;;;32.90;20.47;;;8.20;99.90;;;;;;5013904;28;20171;-86
2022/11/30 11:08:23;;;;;;;30.60;20.53;;;8.10;99.90;;;;;;5021306;28;20200;-87
2022/11/30 11:10:52;;;;;;;29.70;20.07;;;8.00;99.90;;;;;;5035268;28;20158;-86
2022/11/30 11:13:37;;;;;;;30.43;20.80;;;8.10;99.90;;;;;;5010603;28;20170;-86
2022/11/30 11:16:09;;;;;;;28.63;19.13;;;8.10;99.90;;;;;;5009798;28;20162;-87
2022/11/30 11:18:53;;;;;;;28.97;20.10;;;8.10;99.90;;;;;;5008567;28;20170;-85
2022/11/30 11:21:21;;;;;;;28.10;18.83;;;8.10;99.90;;;;;;5023881;28;20165;-83
2022/11/30 11:23:53;;;;;;;28.17;19.17;;;8.10;99.90;;;;;;5040789;28;20171;-86
2022/11/30 11:26:26;;;;;;;29.43;19.30;;;8.00;99.90;;;;;;5020007;28;20217;-88
2022/11/30 11:28:58;;;;;;;30.13;19.10;;;7.90;99.90;;;;;;5015815;28;20202;-87
2022/11/30 11:31:37;;;;;;;32.40;21.03;;;7.90;99.90;;;;;;5020321;28;20186;-88
2022/11/30 11:34:18;;;;;;;34.77;20.43;;;7.90;99.90;;;;;;5025947;28;20158;-90
2022/11/30 11:36:44;;;;;;;30.93;19.47;;;7.90;99.90;;;;;;5025130;28;20154;-87
2022/11/30 11:39:24;;;;;;;30.27;19.97;;;8.10;99.90;;;;;;5001849;28;20677;-85
2022/11/30 11:42:15;;;;;;;32.70;20.27;;;8.00;99.90;;;;;;5018805;28;20177;-81
2022/11/30 11:44:42;;;;;;;35.60;21.93;;;8.00;99.90;;;;;;5027225;28;20631;-79
2022/11/30 11:47:25;;;;;;;33.87;21.90;;;8.00;99.90;;;;;;5009779;28;20214;-81
2022/11/30 11:50:23;;;;;;;35.53;23.00;;;7.90;99.90;;;;;;5003625;28;20205;-86
2022/11/30 11:52:49;;;;;;;35.23;23.47;;;8.10;99.90;;;;;;5000104;28;20609;-86
2022/11/30 11:55:20;;;;;;;34.60;23.80;;;7.90;99.90;;;;;;5019273;28;20171;-86
2022/11/30 11:57:57;;;;;;;38.20;24.77;;;8.10;99.90;;;;;;4985159;28;20249;-83
2022/11/30 12:00:26;;;;;;;34.87;21.57;;;8.20;99.90;;;;;;5025240;28;20170;-86
2022/11/30 12:03:03;;;;;;;36.77;24.23;;;8.20;99.90;;;;;;5001891;28;20186;-83
2022/11/30 12:05:34;;;;;;;34.57;23.33;;;8.40;99.90;;;;;;5007686;28;20196;-85
2022/11/30 12:08:27;;;;;;;37.13;25.00;;;8.50;99.90;;;;;;5009230;28;20174;-82
2022/11/30 12:11:40;;;;;;;32.10;23.33;;;8.50;99.90;;;;;;5000740;28;20170;-86
2022/11/30 12:14:15;;;;;;;39.30;24.33;;;8.70;99.90;;;;;;5025758;28;20165;-83
2022/11/30 12:17:19;;;;;;;40.27;27.90;;;8.70;99.90;;;;;;5027411;28;20245;-86
2022/11/30 12:19:53;;;;;;;33.47;22.80;;;8.80;99.90;;;;;;5023840;28;20178;-83
2022/11/30 12:22:43;;;;;;;35.50;24.97;;;8.80;99.90;;;;;;5026583;28;20720;-83
2022/11/30 12:25:19;;;;;;;36.77;24.10;;;8.90;99.90;;;;;;5009515;28;20175;-84
2022/11/30 12:28:15;;;;;;;35.17;24.77;;;9.00;99.90;;;;;;5009704;28;20181;-81
2022/11/30 12:30:53;;;;;;;41.37;24.60;;;9.10;99.90;;;;;;5038197;28;20221;-83
2022/11/30 12:33:24;;;;;;;37.80;24.03;;;9.00;99.90;;;;;;5029572;28;20162;-85
2022/11/30 12:36:09;;;;;;;32.87;21.53;;;9.10;99.30;;;;;;5011091;28;20567;-82
2022/11/30 12:38:51;;;;;;;34.10;22.97;;;9.00;97.90;;;;;;5029208;28;20189;-84
2022/11/30 12:41:43;;;;;;;33.07;23.10;;;8.90;98.80;;;;;;5029180;28;20197;-82
2022/11/30 12:44:40;;;;;;;31.17;23.00;;;9.00;99.90;;;;;;5030580;28;20170;-86
2022/11/30 12:47:45;;;;;;;37.27;22.97;;;9.20;99.00;;;;;;5027079;28;20258;-81
2022/11/30 12:50:33;;;;;;;35.33;23.13;;;9.30;98.10;;;;;;5031074;28;20159;-82
2022/11/30 12:53:02;;;;;;;35.80;22.83;;;9.40;97.50;;;;;;5001145;28;20191;-84
2022/11/30 12:56:08;;;;;;;38.23;21.90;;;9.20;95.60;;;;;;5012157;28;20250;-85
2022/11/30 12:59:03;;;;;;;31.07;22.17;;;9.10;96.40;;;;;;5007161;28;20182;-89
2022/11/30 13:01:44;;;;;;;31.37;22.20;;;9.00;97.80;;;;;;4997849;28;20190;-89